METAR Data
IDs: Format: Raw Decoded Include TAF

Data at: 0311 UTC 15 Aug 2020

METAR for:KFDK (Frederick Muni, MD, US)
Text:KFDK 150255Z AUTO 00000KT 10SM SCT065 SCT090 BKN110 22/20 A3000 RMK AO2
Temperature: 22.0°C ( 72°F)
Dewpoint: 20.0°C ( 68°F) [RH = 88%]
Pressure (altimeter):30.00 inches Hg (1016.0 mb)
Winds:calm
Visibility:10 or more sm (16+ km)
Ceiling:11000 feet AGL
Clouds: scattered clouds at 6500 feet AGL, scattered clouds at 9000 feet AGL, broken clouds at 11000 feet AGL
QC Flag:automated observation with no human augmentation